sensor_id;sensor_type;location;lat;lon;timestamp;temperature;humidity
71047;SHT31;58703;48.978;8.982;2023-01-15T00:00:58;11.43;84.45
71047;SHT31;58703;48.978;8.982;2023-01-15T00:03:23;11.37;84.30
71047;SHT31;58703;48.978;8.982;2023-01-15T00:05:49;11.40;84.42
71047;SHT31;58703;48.978;8.982;2023-01-15T00:08:14;11.36;84.73
71047;SHT31;58703;48.978;8.982;2023-01-15T00:10:40;11.30;85.24
71047;SHT31;58703;48.978;8.982;2023-01-15T00:13:06;11.36;84.70
71047;SHT31;58703;48.978;8.982;2023-01-15T00:15:31;11.44;84.31
71047;SHT31;58703;48.978;8.982;2023-01-15T00:17:57;11.40;84.50
71047;SHT31;58703;48.978;8.982;2023-01-15T00:20:22;11.43;84.32
71047;SHT31;58703;48.978;8.982;2023-01-15T00:22:48;11.52;83.64
71047;SHT31;58703;48.978;8.982;2023-01-15T00:25:13;11.56;83.86
71047;SHT31;58703;48.978;8.982;2023-01-15T00:27:57;11.74;82.49
71047;SHT31;58703;48.978;8.982;2023-01-15T00:30:23;11.84;82.35
71047;SHT31;58703;48.978;8.982;2023-01-15T00:32:49;11.74;82.64
71047;SHT31;58703;48.978;8.982;2023-01-15T00:35:21;11.66;83.19
71047;SHT31;58703;48.978;8.982;2023-01-15T00:37:47;11.56;83.73
71047;SHT31;58703;48.978;8.982;2023-01-15T00:40:14;11.56;83.58
71047;SHT31;58703;48.978;8.982;2023-01-15T00:42:40;11.69;82.83
71047;SHT31;58703;48.978;8.982;2023-01-15T00:45:07;11.66;83.14
71047;SHT31;58703;48.978;8.982;2023-01-15T00:47:40;11.67;83.23
71047;SHT31;58703;48.978;8.982;2023-01-15T00:50:09;11.56;83.74
71047;SHT31;58703;48.978;8.982;2023-01-15T00:52:35;11.70;82.98
71047;SHT31;58703;48.978;8.982;2023-01-15T00:55:00;11.78;82.40
71047;SHT31;58703;48.978;8.982;2023-01-15T00:57:26;11.73;82.57
71047;SHT31;58703;48.978;8.982;2023-01-15T00:59:51;11.74;82.74
71047;SHT31;58703;48.978;8.982;2023-01-15T01:02:17;11.85;81.77
71047;SHT31;58703;48.978;8.982;2023-01-15T01:04:42;11.81;82.24
71047;SHT31;58703;48.978;8.982;2023-01-15T01:07:08;11.74;82.55
71047;SHT31;58703;48.978;8.982;2023-01-15T01:09:34;11.71;82.57
71047;SHT31;58703;48.978;8.982;2023-01-15T01:11:59;11.77;82.28
71047;SHT31;58703;48.978;8.982;2023-01-15T01:14:25;11.73;82.71
71047;SHT31;58703;48.978;8.982;2023-01-15T01:16:51;11.77;82.24
71047;SHT31;58703;48.978;8.982;2023-01-15T01:19:19;11.87;81.70
71047;SHT31;58703;48.978;8.982;2023-01-15T01:21:46;11.81;81.95
71047;SHT31;58703;48.978;8.982;2023-01-15T01:24:14;11.85;81.86
71047;SHT31;58703;48.978;8.982;2023-01-15T01:26:41;11.83;81.96
71047;SHT31;58703;48.978;8.982;2023-01-15T01:29:11;11.81;82.29
71047;SHT31;58703;48.978;8.982;2023-01-15T01:31:37;11.78;82.48
71047;SHT31;58703;48.978;8.982;2023-01-15T01:34:03;11.77;82.12
71047;SHT31;58703;48.978;8.982;2023-01-15T01:36:33;11.94;81.32
71047;SHT31;58703;48.978;8.982;2023-01-15T01:39:00;11.83;81.99
71047;SHT31;58703;48.978;8.982;2023-01-15T01:41:26;11.88;81.62
71047;SHT31;58703;48.978;8.982;2023-01-15T01:43:55;11.94;81.29
71047;SHT31;58703;48.978;8.982;2023-01-15T01:46:21;12.04;80.93
71047;SHT31;58703;48.978;8.982;2023-01-15T01:48:49;11.97;81.21
71047;SHT31;58703;48.978;8.982;2023-01-15T01:51:18;11.91;81.81
71047;SHT31;58703;48.978;8.982;2023-01-15T01:53:45;11.97;81.50
71047;SHT31;58703;48.978;8.982;2023-01-15T01:56:11;12.02;81.22
71047;SHT31;58703;48.978;8.982;2023-01-15T01:58:37;11.98;81.64
71047;SHT31;58703;48.978;8.982;2023-01-15T02:01:03;11.91;81.88
71047;SHT31;58703;48.978;8.982;2023-01-15T02:03:32;11.99;81.45
71047;SHT31;58703;48.978;8.982;2023-01-15T02:06:00;11.90;82.20
71047;SHT31;58703;48.978;8.982;2023-01-15T02:08:27;11.87;82.26
71047;SHT31;58703;48.978;8.982;2023-01-15T02:10:54;11.88;82.77
71047;SHT31;58703;48.978;8.982;2023-01-15T02:16:04;11.83;83.23
71047;SHT31;58703;48.978;8.982;2023-01-15T02:21:56;11.91;83.00
71047;SHT31;58703;48.978;8.982;2023-01-15T02:24:36;11.88;83.17
71047;SHT31;58703;48.978;8.982;2023-01-15T02:27:13;11.74;84.12
71047;SHT31;58703;48.978;8.982;2023-01-15T02:29:45;11.78;83.69
71047;SHT31;58703;48.978;8.982;2023-01-15T02:32:32;11.80;83.80
71047;SHT31;58703;48.978;8.982;2023-01-15T02:35:07;11.80;83.79
71047;SHT31;58703;48.978;8.982;2023-01-15T02:37:38;11.83;84.19
71047;SHT31;58703;48.978;8.982;2023-01-15T02:40:06;11.78;84.06
71047;SHT31;58703;48.978;8.982;2023-01-15T02:42:33;11.75;84.16
71047;SHT31;58703;48.978;8.982;2023-01-15T02:45:01;11.73;84.20
71047;SHT31;58703;48.978;8.982;2023-01-15T02:47:32;11.71;84.38
71047;SHT31;58703;48.978;8.982;2023-01-15T02:50:02;11.69;84.81
71047;SHT31;58703;48.978;8.982;2023-01-15T02:52:33;11.71;84.54
71047;SHT31;58703;48.978;8.982;2023-01-15T02:55:16;11.67;85.09
71047;SHT31;58703;48.978;8.982;2023-01-15T02:57:45;11.43;86.87
71047;SHT31;58703;48.978;8.982;2023-01-15T03:00:13;11.44;86.57
71047;SHT31;58703;48.978;8.982;2023-01-15T03:02:49;11.27;87.81
71047;SHT31;58703;48.978;8.982;2023-01-15T03:05:22;11.34;87.77
71047;SHT31;58703;48.978;8.982;2023-01-15T03:07:52;11.47;86.76
71047;SHT31;58703;48.978;8.982;2023-01-15T03:10:23;11.37;87.24
71047;SHT31;58703;48.978;8.982;2023-01-15T03:12:59;11.29;88.16
71047;SHT31;58703;48.978;8.982;2023-01-15T03:15:52;11.32;87.35
71047;SHT31;58703;48.978;8.982;2023-01-15T03:18:49;11.36;87.33
71047;SHT31;58703;48.978;8.982;2023-01-15T03:21:20;11.36;87.23
71047;SHT31;58703;48.978;8.982;2023-01-15T03:23:49;11.32;87.71
71047;SHT31;58703;48.978;8.982;2023-01-15T03:26:15;11.46;86.33
71047;SHT31;58703;48.978;8.982;2023-01-15T03:28:42;11.54;86.23
71047;SHT31;58703;48.978;8.982;2023-01-15T03:31:08;11.85;84.65
71047;SHT31;58703;48.978;8.982;2023-01-15T03:33:34;11.95;84.15
71047;SHT31;58703;48.978;8.982;2023-01-15T03:36:00;11.97;84.23
71047;SHT31;58703;48.978;8.982;2023-01-15T03:38:29;12.05;83.60
71047;SHT31;58703;48.978;8.982;2023-01-15T03:41:18;12.26;82.46
71047;SHT31;58703;48.978;8.982;2023-01-15T03:46:48;12.21;82.95
71047;SHT31;58703;48.978;8.982;2023-01-15T03:49:26;12.11;83.13
71047;SHT31;58703;48.978;8.982;2023-01-15T03:52:02;12.22;82.90
71047;SHT31;58703;48.978;8.982;2023-01-15T03:57:16;12.29;82.53
71047;SHT31;58703;48.978;8.982;2023-01-15T03:59:53;12.17;83.17
71047;SHT31;58703;48.978;8.982;2023-01-15T04:02:20;11.98;83.98
71047;SHT31;58703;48.978;8.982;2023-01-15T04:04:48;11.98;84.25
71047;SHT31;58703;48.978;8.982;2023-01-15T04:07:15;12.07;83.83
71047;SHT31;58703;48.978;8.982;2023-01-15T04:09:41;12.05;83.84
71047;SHT31;58703;48.978;8.982;2023-01-15T04:12:07;12.11;83.53
71047;SHT31;58703;48.978;8.982;2023-01-15T04:14:33;12.18;83.33
71047;SHT31;58703;48.978;8.982;2023-01-15T04:16:59;12.35;81.71
71047;SHT31;58703;48.978;8.982;2023-01-15T04:19:24;11.97;84.09
71047;SHT31;58703;48.978;8.982;2023-01-15T04:21:50;11.97;84.19
71047;SHT31;58703;48.978;8.982;2023-01-15T04:24:15;11.85;84.77
71047;SHT31;58703;48.978;8.982;2023-01-15T04:26:41;11.95;84.61
71047;SHT31;58703;48.978;8.982;2023-01-15T04:29:06;11.85;84.95
71047;SHT31;58703;48.978;8.982;2023-01-15T04:31:32;11.99;84.06
71047;SHT31;58703;48.978;8.982;2023-01-15T04:34:00;12.25;82.26
71047;SHT31;58703;48.978;8.982;2023-01-15T04:36:25;12.15;82.86
71047;SHT31;58703;48.978;8.982;2023-01-15T04:38:51;10.40;91.16
71047;SHT31;58703;48.978;8.982;2023-01-15T04:41:16;9.55;95.53
71047;SHT31;58703;48.978;8.982;2023-01-15T04:44:00;9.16;97.49
71047;SHT31;58703;48.978;8.982;2023-01-15T04:46:52;8.94;98.06
71047;SHT31;58703;48.978;8.982;2023-01-15T04:49:18;8.78;98.59
71047;SHT31;58703;48.978;8.982;2023-01-15T04:51:44;8.71;99.06
71047;SHT31;58703;48.978;8.982;2023-01-15T04:54:12;8.57;98.94
71047;SHT31;58703;48.978;8.982;2023-01-15T04:56:40;8.49;99.03
71047;SHT31;58703;48.978;8.982;2023-01-15T04:59:07;8.40;98.94
71047;SHT31;58703;48.978;8.982;2023-01-15T05:01:33;8.26;98.57
71047;SHT31;58703;48.978;8.982;2023-01-15T05:03:59;8.20;98.25
71047;SHT31;58703;48.978;8.982;2023-01-15T05:06:25;8.25;97.58
71047;SHT31;58703;48.978;8.982;2023-01-15T05:08:51;8.23;97.28
71047;SHT31;58703;48.978;8.982;2023-01-15T05:11:16;8.17;97.47
71047;SHT31;58703;48.978;8.982;2023-01-15T05:13:42;8.14;97.07
71047;SHT31;58703;48.978;8.982;2023-01-15T05:16:22;8.06;97.34
71047;SHT31;58703;48.978;8.982;2023-01-15T05:18:50;8.06;97.46
71047;SHT31;58703;48.978;8.982;2023-01-15T05:21:26;7.96;97.81
71047;SHT31;58703;48.978;8.982;2023-01-15T05:23:54;7.89;98.24
71047;SHT31;58703;48.978;8.982;2023-01-15T05:26:23;7.83;98.24
71047;SHT31;58703;48.978;8.982;2023-01-15T05:28:52;7.72;98.93
71047;SHT31;58703;48.978;8.982;2023-01-15T05:31:18;7.68;98.78
71047;SHT31;58703;48.978;8.982;2023-01-15T05:33:45;7.61;96.93
71047;SHT31;58703;48.978;8.982;2023-01-15T05:36:14;7.50;97.90
71047;SHT31;58703;48.978;8.982;2023-01-15T05:38:40;7.43;98.44
71047;SHT31;58703;48.978;8.982;2023-01-15T05:41:09;7.40;98.67
71047;SHT31;58703;48.978;8.982;2023-01-15T05:43:54;7.27;99.29
71047;SHT31;58703;48.978;8.982;2023-01-15T05:46:20;7.27;99.65
71047;SHT31;58703;48.978;8.982;2023-01-15T05:48:46;7.21;99.68
71047;SHT31;58703;48.978;8.982;2023-01-15T05:51:11;7.21;99.31
71047;SHT31;58703;48.978;8.982;2023-01-15T05:53:37;7.18;99.47
71047;SHT31;58703;48.978;8.982;2023-01-15T05:56:03;7.16;99.99
71047;SHT31;58703;48.978;8.982;2023-01-15T05:58:29;7.11;99.99
71047;SHT31;58703;48.978;8.982;2023-01-15T06:00:55;7.10;99.99
71047;SHT31;58703;48.978;8.982;2023-01-15T06:03:22;7.07;99.55
71047;SHT31;58703;48.978;8.982;2023-01-15T06:05:52;7.03;99.99
71047;SHT31;58703;48.978;8.982;2023-01-15T06:08:17;7.03;99.99
71047;SHT31;58703;48.978;8.982;2023-01-15T06:10:44;6.99;99.99
71047;SHT31;58703;48.978;8.982;2023-01-15T06:13:10;6.93;99.72
71047;SHT31;58703;48.978;8.982;2023-01-15T06:15:35;6.89;99.99
71047;SHT31;58703;48.978;8.982;2023-01-15T06:18:01;6.86;99.99
71047;SHT31;58703;48.978;8.982;2023-01-15T06:20:26;6.83;99.99
71047;SHT31;58703;48.978;8.982;2023-01-15T06:22:52;6.80;99.99
71047;SHT31;58703;48.978;8.982;2023-01-15T06:25:17;6.83;99.99
71047;SHT31;58703;48.978;8.982;2023-01-15T06:27:43;6.80;99.99
71047;SHT31;58703;48.978;8.982;2023-01-15T06:30:10;6.83;99.99
71047;SHT31;58703;48.978;8.982;2023-01-15T06:32:36;6.75;99.99
71047;SHT31;58703;48.978;8.982;2023-01-15T06:35:01;6.73;98.36
71047;SHT31;58703;48.978;8.982;2023-01-15T06:37:27;6.73;97.23
71047;SHT31;58703;48.978;8.982;2023-01-15T06:39:52;6.68;96.94
71047;SHT31;58703;48.978;8.982;2023-01-15T06:42:18;6.52;96.97
71047;SHT31;58703;48.978;8.982;2023-01-15T06:45:02;6.36;96.13
71047;SHT31;58703;48.978;8.982;2023-01-15T06:47:47;6.17;97.08
71047;SHT31;58703;48.978;8.982;2023-01-15T06:50:12;6.17;96.42
71047;SHT31;58703;48.978;8.982;2023-01-15T06:52:38;6.11;96.85
71047;SHT31;58703;48.978;8.982;2023-01-15T06:55:04;6.07;96.66
71047;SHT31;58703;48.978;8.982;2023-01-15T06:57:30;5.98;96.79
71047;SHT31;58703;48.978;8.982;2023-01-15T06:59:55;5.98;96.31
71047;SHT31;58703;48.978;8.982;2023-01-15T07:02:21;5.93;97.69
71047;SHT31;58703;48.978;8.982;2023-01-15T07:04:47;5.91;97.09
71047;SHT31;58703;48.978;8.982;2023-01-15T07:07:17;5.87;97.10
71047;SHT31;58703;48.978;8.982;2023-01-15T07:09:43;5.87;98.06
71047;SHT31;58703;48.978;8.982;2023-01-15T07:12:09;5.80;98.07
71047;SHT31;58703;48.978;8.982;2023-01-15T07:14:35;5.78;98.30
71047;SHT31;58703;48.978;8.982;2023-01-15T07:17:01;5.75;98.44
71047;SHT31;58703;48.978;8.982;2023-01-15T07:19:26;5.77;98.07
71047;SHT31;58703;48.978;8.982;2023-01-15T07:21:53;5.78;96.69
71047;SHT31;58703;48.978;8.982;2023-01-15T07:24:19;5.71;97.60
71047;SHT31;58703;48.978;8.982;2023-01-15T07:26:44;5.74;97.38
71047;SHT31;58703;48.978;8.982;2023-01-15T07:29:12;5.67;97.59
71047;SHT31;58703;48.978;8.982;2023-01-15T07:31:39;5.64;97.36
71047;SHT31;58703;48.978;8.982;2023-01-15T07:34:05;5.63;97.01
71047;SHT31;58703;48.978;8.982;2023-01-15T07:36:32;5.63;96.53
71047;SHT31;58703;48.978;8.982;2023-01-15T07:38:58;5.63;96.44
71047;SHT31;58703;48.978;8.982;2023-01-15T07:41:24;5.56;97.39
71047;SHT31;58703;48.978;8.982;2023-01-15T07:44:10;5.60;96.02
71047;SHT31;58703;48.978;8.982;2023-01-15T07:46:54;5.61;96.06
71047;SHT31;58703;48.978;8.982;2023-01-15T07:49:42;5.66;95.71
71047;SHT31;58703;48.978;8.982;2023-01-15T07:52:19;5.64;96.64
71047;SHT31;58703;48.978;8.982;2023-01-15T07:54:48;5.61;96.09
71047;SHT31;58703;48.978;8.982;2023-01-15T07:57:16;5.59;97.01
71047;SHT31;58703;48.978;8.982;2023-01-15T07:59:44;5.63;96.05
71047;SHT31;58703;48.978;8.982;2023-01-15T08:02:10;5.59;97.24
71047;SHT31;58703;48.978;8.982;2023-01-15T08:04:36;5.66;95.63
71047;SHT31;58703;48.978;8.982;2023-01-15T08:07:02;5.66;95.88
71047;SHT31;58703;48.978;8.982;2023-01-15T08:09:28;5.63;95.48
71047;SHT31;58703;48.978;8.982;2023-01-15T08:11:56;5.61;96.13
71047;SHT31;58703;48.978;8.982;2023-01-15T08:14:41;5.63;96.45
71047;SHT31;58703;48.978;8.982;2023-01-15T08:17:25;5.73;94.35
71047;SHT31;58703;48.978;8.982;2023-01-15T08:19:50;5.66;95.43
71047;SHT31;58703;48.978;8.982;2023-01-15T08:22:16;5.60;95.11
71047;SHT31;58703;48.978;8.982;2023-01-15T08:24:43;5.63;95.74
71047;SHT31;58703;48.978;8.982;2023-01-15T08:27:08;5.61;94.42
71047;SHT31;58703;48.978;8.982;2023-01-15T08:29:34;5.59;94.33
71047;SHT31;58703;48.978;8.982;2023-01-15T08:32:00;5.49;95.94
71047;SHT31;58703;48.978;8.982;2023-01-15T08:34:25;5.59;93.75
71047;SHT31;58703;48.978;8.982;2023-01-15T08:36:51;5.52;95.35
71047;SHT31;58703;48.978;8.982;2023-01-15T08:39:27;5.42;95.72
71047;SHT31;58703;48.978;8.982;2023-01-15T08:41:57;5.46;95.23
71047;SHT31;58703;48.978;8.982;2023-01-15T08:44:23;5.40;95.53
71047;SHT31;58703;48.978;8.982;2023-01-15T08:46:50;5.42;95.23
71047;SHT31;58703;48.978;8.982;2023-01-15T08:49:17;5.43;95.75
71047;SHT31;58703;48.978;8.982;2023-01-15T08:51:44;5.35;96.08
71047;SHT31;58703;48.978;8.982;2023-01-15T08:54:11;5.32;96.69
71047;SHT31;58703;48.978;8.982;2023-01-15T08:56:37;5.33;96.07
71047;SHT31;58703;48.978;8.982;2023-01-15T08:59:04;5.33;95.58
71047;SHT31;58703;48.978;8.982;2023-01-15T09:01:30;5.29;95.88
71047;SHT31;58703;48.978;8.982;2023-01-15T09:03:56;5.30;95.62
71047;SHT31;58703;48.978;8.982;2023-01-15T09:06:23;5.25;95.15
71047;SHT31;58703;48.978;8.982;2023-01-15T09:08:48;5.25;95.12
71047;SHT31;58703;48.978;8.982;2023-01-15T09:11:14;5.22;95.58
71047;SHT31;58703;48.978;8.982;2023-01-15T09:13:40;5.23;95.12
71047;SHT31;58703;48.978;8.982;2023-01-15T09:16:06;5.20;94.56
71047;SHT31;58703;48.978;8.982;2023-01-15T09:18:36;5.13;94.73
71047;SHT31;58703;48.978;8.982;2023-01-15T09:21:06;5.11;94.11
71047;SHT31;58703;48.978;8.982;2023-01-15T09:23:32;5.04;95.21
71047;SHT31;58703;48.978;8.982;2023-01-15T09:26:03;5.01;95.75
71047;SHT31;58703;48.978;8.982;2023-01-15T09:28:31;4.96;95.07
71047;SHT31;58703;48.978;8.982;2023-01-15T09:31:01;4.98;93.32
71047;SHT31;58703;48.978;8.982;2023-01-15T09:33:26;4.95;94.85
71047;SHT31;58703;48.978;8.982;2023-01-15T09:35:52;4.91;94.51
71047;SHT31;58703;48.978;8.982;2023-01-15T09:38:19;4.88;94.46
71047;SHT31;58703;48.978;8.982;2023-01-15T09:41:01;4.87;94.26
71047;SHT31;58703;48.978;8.982;2023-01-15T09:43:48;4.87;94.29
71047;SHT31;58703;48.978;8.982;2023-01-15T09:46:21;4.78;95.32
71047;SHT31;58703;48.978;8.982;2023-01-15T09:54:35;4.77;95.61
71047;SHT31;58703;48.978;8.982;2023-01-15T09:57:06;4.79;94.56
71047;SHT31;58703;48.978;8.982;2023-01-15T09:59:38;4.79;94.01
71047;SHT31;58703;48.978;8.982;2023-01-15T10:02:39;4.77;95.47
71047;SHT31;58703;48.978;8.982;2023-01-15T10:05:30;4.74;94.89
71047;SHT31;58703;48.978;8.982;2023-01-15T10:08:03;4.72;95.08
71047;SHT31;58703;48.978;8.982;2023-01-15T10:11:04;4.68;94.79
71047;SHT31;58703;48.978;8.982;2023-01-15T10:13:46;4.67;94.64
71047;SHT31;58703;48.978;8.982;2023-01-15T10:16:27;4.57;94.62
71047;SHT31;58703;48.978;8.982;2023-01-15T10:18:54;4.54;95.14
71047;SHT31;58703;48.978;8.982;2023-01-15T10:24:29;4.50;93.24
71047;SHT31;58703;48.978;8.982;2023-01-15T10:27:14;4.50;93.71
71047;SHT31;58703;48.978;8.982;2023-01-15T10:35:50;4.36;93.85
71047;SHT31;58703;48.978;8.982;2023-01-15T10:43:53;4.26;94.75
71047;SHT31;58703;48.978;8.982;2023-01-15T10:46:24;4.26;95.20
71047;SHT31;58703;48.978;8.982;2023-01-15T10:49:16;4.21;95.95
71047;SHT31;58703;48.978;8.982;2023-01-15T10:51:51;4.20;95.19
71047;SHT31;58703;48.978;8.982;2023-01-15T10:54:38;4.21;94.39
71047;SHT31;58703;48.978;8.982;2023-01-15T10:57:17;4.20;94.22
71047;SHT31;58703;48.978;8.982;2023-01-15T11:00:00;4.16;94.26
71047;SHT31;58703;48.978;8.982;2023-01-15T11:05:04;4.02;95.09
71047;SHT31;58703;48.978;8.982;2023-01-15T11:07:41;4.03;95.58
71047;SHT31;58703;48.978;8.982;2023-01-15T11:10:11;4.00;95.93
71047;SHT31;58703;48.978;8.982;2023-01-15T11:12:57;3.96;96.00
71047;SHT31;58703;48.978;8.982;2023-01-15T11:15:47;3.90;94.75
71047;SHT31;58703;48.978;8.982;2023-01-15T11:18:39;3.86;95.47
71047;SHT31;58703;48.978;8.982;2023-01-15T11:21:24;3.85;95.68
71047;SHT31;58703;48.978;8.982;2023-01-15T11:23:51;3.83;95.04
71047;SHT31;58703;48.978;8.982;2023-01-15T11:26:28;3.79;94.80
71047;SHT31;58703;48.978;8.982;2023-01-15T11:28:55;3.71;94.86
71047;SHT31;58703;48.978;8.982;2023-01-15T11:31:34;3.71;95.19
71047;SHT31;58703;48.978;8.982;2023-01-15T11:34:02;3.72;94.99
71047;SHT31;58703;48.978;8.982;2023-01-15T11:36:29;3.63;95.49
71047;SHT31;58703;48.978;8.982;2023-01-15T11:38:55;3.62;95.99
71047;SHT31;58703;48.978;8.982;2023-01-15T11:44:15;3.63;94.24
71047;SHT31;58703;48.978;8.982;2023-01-15T11:47:00;3.61;95.34
71047;SHT31;58703;48.978;8.982;2023-01-15T11:49:52;3.55;95.90
71047;SHT31;58703;48.978;8.982;2023-01-15T11:52:40;3.52;94.72
71047;SHT31;58703;48.978;8.982;2023-01-15T11:55:12;3.55;95.06
71047;SHT31;58703;48.978;8.982;2023-01-15T11:57:39;3.56;95.98
71047;SHT31;58703;48.978;8.982;2023-01-15T12:00:13;3.62;94.32
71047;SHT31;58703;48.978;8.982;2023-01-15T12:02:44;3.71;93.19
71047;SHT31;58703;48.978;8.982;2023-01-15T12:05:19;3.72;94.30
71047;SHT31;58703;48.978;8.982;2023-01-15T12:07:47;3.73;93.91
71047;SHT31;58703;48.978;8.982;2023-01-15T12:10:36;3.82;93.25
71047;SHT31;58703;48.978;8.982;2023-01-15T12:27:15;4.17;90.57
71047;SHT31;58703;48.978;8.982;2023-01-15T12:32:36;4.26;89.83
71047;SHT31;58703;48.978;8.982;2023-01-15T12:35:12;4.29;90.14
71047;SHT31;58703;48.978;8.982;2023-01-15T12:37:45;4.38;89.25
71047;SHT31;58703;48.978;8.982;2023-01-15T12:42:40;4.44;89.14
71047;SHT31;58703;48.978;8.982;2023-01-15T12:45:28;4.53;88.45
71047;SHT31;58703;48.978;8.982;2023-01-15T12:48:02;4.54;88.60
71047;SHT31;58703;48.978;8.982;2023-01-15T12:50:41;4.58;88.86
71047;SHT31;58703;48.978;8.982;2023-01-15T12:58:53;4.72;87.57
71047;SHT31;58703;48.978;8.982;2023-01-15T13:01:36;4.77;87.47
71047;SHT31;58703;48.978;8.982;2023-01-15T13:06:46;4.79;86.74
71047;SHT31;58703;48.978;8.982;2023-01-15T13:09:29;4.77;88.00
71047;SHT31;58703;48.978;8.982;2023-01-15T13:11:58;4.81;87.52
71047;SHT31;58703;48.978;8.982;2023-01-15T13:14:23;4.88;87.46
71047;SHT31;58703;48.978;8.982;2023-01-15T13:16:57;4.84;87.21
71047;SHT31;58703;48.978;8.982;2023-01-15T13:19:34;4.89;86.80
71047;SHT31;58703;48.978;8.982;2023-01-15T13:22:07;5.02;85.76
71047;SHT31;58703;48.978;8.982;2023-01-15T13:27:53;5.77;83.96
71047;SHT31;58703;48.978;8.982;2023-01-15T13:30:32;6.05;82.69
71047;SHT31;58703;48.978;8.982;2023-01-15T13:33:28;5.94;82.67
71047;SHT31;58703;48.978;8.982;2023-01-15T13:36:05;5.90;82.45
71047;SHT31;58703;48.978;8.982;2023-01-15T13:38:39;5.90;82.37
71047;SHT31;58703;48.978;8.982;2023-01-15T13:41:07;5.97;82.89
71047;SHT31;58703;48.978;8.982;2023-01-15T13:43:41;6.10;82.03
71047;SHT31;58703;48.978;8.982;2023-01-15T13:46:12;6.18;81.97
71047;SHT31;58703;48.978;8.982;2023-01-15T13:48:44;6.31;81.82
71047;SHT31;58703;48.978;8.982;2023-01-15T13:51:32;6.80;81.31
71047;SHT31;58703;48.978;8.982;2023-01-15T13:54:04;6.59;81.31
71047;SHT31;58703;48.978;8.982;2023-01-15T13:56:35;6.35;80.55
71047;SHT31;58703;48.978;8.982;2023-01-15T13:59:04;6.26;81.56
71047;SHT31;58703;48.978;8.982;2023-01-15T14:06:48;6.61;79.68
71047;SHT31;58703;48.978;8.982;2023-01-15T14:36:22;6.99;76.25
71047;SHT31;58703;48.978;8.982;2023-01-15T14:38:54;7.00;76.92
71047;SHT31;58703;48.978;8.982;2023-01-15T14:41:31;7.01;77.43
71047;SHT31;58703;48.978;8.982;2023-01-15T14:44:01;6.75;75.26
71047;SHT31;58703;48.978;8.982;2023-01-15T14:46:31;6.93;76.05
71047;SHT31;58703;48.978;8.982;2023-01-15T14:48:59;6.75;77.12
71047;SHT31;58703;48.978;8.982;2023-01-15T14:51:27;6.29;78.02
71047;SHT31;58703;48.978;8.982;2023-01-15T14:54:05;6.44;78.07
71047;SHT31;58703;48.978;8.982;2023-01-15T14:56:37;6.87;76.52
71047;SHT31;58703;48.978;8.982;2023-01-15T15:01:42;7.08;75.52
71047;SHT31;58703;48.978;8.982;2023-01-15T15:06:46;7.01;74.97
71047;SHT31;58703;48.978;8.982;2023-01-15T15:09:13;6.25;76.64
71047;SHT31;58703;48.978;8.982;2023-01-15T15:11:46;5.94;77.87
71047;SHT31;58703;48.978;8.982;2023-01-15T15:14:37;5.78;79.25
71047;SHT31;58703;48.978;8.982;2023-01-15T15:17:06;5.69;79.93
71047;SHT31;58703;48.978;8.982;2023-01-15T15:19:43;5.74;79.28
71047;SHT31;58703;48.978;8.982;2023-01-15T15:22:14;5.67;79.39
71047;SHT31;58703;48.978;8.982;2023-01-15T15:24:46;5.50;80.41
71047;SHT31;58703;48.978;8.982;2023-01-15T15:27:17;5.35;80.44
71047;SHT31;58703;48.978;8.982;2023-01-15T15:29:43;5.23;80.64
71047;SHT31;58703;48.978;8.982;2023-01-15T15:32:16;5.13;81.30
71047;SHT31;58703;48.978;8.982;2023-01-15T15:34:44;4.98;81.37
71047;SHT31;58703;48.978;8.982;2023-01-15T15:37:22;5.09;80.69
71047;SHT31;58703;48.978;8.982;2023-01-15T15:40:04;4.93;81.45
71047;SHT31;58703;48.978;8.982;2023-01-15T15:42:40;4.75;81.57
71047;SHT31;58703;48.978;8.982;2023-01-15T15:45:28;4.60;82.21
71047;SHT31;58703;48.978;8.982;2023-01-15T15:48:16;4.62;82.37
71047;SHT31;58703;48.978;8.982;2023-01-15T15:51:00;4.57;82.52
71047;SHT31;58703;48.978;8.982;2023-01-15T15:53:27;4.81;80.27
71047;SHT31;58703;48.978;8.982;2023-01-15T15:55:54;4.68;80.26
71047;SHT31;58703;48.978;8.982;2023-01-15T15:58:31;4.58;80.81
71047;SHT31;58703;48.978;8.982;2023-01-15T16:00:58;4.48;81.14
71047;SHT31;58703;48.978;8.982;2023-01-15T16:03:26;4.69;79.60
71047;SHT31;58703;48.978;8.982;2023-01-15T16:06:04;4.62;79.80
71047;SHT31;58703;48.978;8.982;2023-01-15T16:08:34;4.47;80.20
71047;SHT31;58703;48.978;8.982;2023-01-15T16:11:03;4.30;80.97
71047;SHT31;58703;48.978;8.982;2023-01-15T16:13:46;4.32;80.69
71047;SHT31;58703;48.978;8.982;2023-01-15T16:16:13;4.32;80.64
71047;SHT31;58703;48.978;8.982;2023-01-15T16:19:00;4.34;80.31
71047;SHT31;58703;48.978;8.982;2023-01-15T16:21:32;4.48;79.52
71047;SHT31;58703;48.978;8.982;2023-01-15T16:24:01;4.40;80.36
71047;SHT31;58703;48.978;8.982;2023-01-15T16:29:03;4.40;79.78
71047;SHT31;58703;48.978;8.982;2023-01-15T16:31:33;4.33;79.99
71047;SHT31;58703;48.978;8.982;2023-01-15T16:34:00;4.24;80.16
71047;SHT31;58703;48.978;8.982;2023-01-15T16:36:27;4.34;79.82
71047;SHT31;58703;48.978;8.982;2023-01-15T16:38:53;4.26;79.93
71047;SHT31;58703;48.978;8.982;2023-01-15T16:41:32;4.18;80.22
71047;SHT31;58703;48.978;8.982;2023-01-15T16:44:04;4.33;79.55
71047;SHT31;58703;48.978;8.982;2023-01-15T16:46:32;4.26;80.01
71047;SHT31;58703;48.978;8.982;2023-01-15T16:49:24;4.06;80.91
71047;SHT31;58703;48.978;8.982;2023-01-15T16:51:55;4.09;80.73
71047;SHT31;58703;48.978;8.982;2023-01-15T16:57:10;4.20;80.49
71047;SHT31;58703;48.978;8.982;2023-01-15T16:59:58;4.26;80.33
71047;SHT31;58703;48.978;8.982;2023-01-15T17:02:24;4.21;80.75
71047;SHT31;58703;48.978;8.982;2023-01-15T17:04:54;4.06;81.25
71047;SHT31;58703;48.978;8.982;2023-01-15T17:07:25;4.11;81.16
71047;SHT31;58703;48.978;8.982;2023-01-15T17:09:55;4.14;81.04
71047;SHT31;58703;48.978;8.982;2023-01-15T17:12:38;4.36;80.08
71047;SHT31;58703;48.978;8.982;2023-01-15T17:17:43;4.13;81.13
71047;SHT31;58703;48.978;8.982;2023-01-15T17:20:10;4.06;81.30
71047;SHT31;58703;48.978;8.982;2023-01-15T17:22:39;4.02;81.48
71047;SHT31;58703;48.978;8.982;2023-01-15T17:25:26;4.09;81.39
71047;SHT31;58703;48.978;8.982;2023-01-15T17:27:53;4.23;80.78
71047;SHT31;58703;48.978;8.982;2023-01-15T17:30:19;4.26;80.70
71047;SHT31;58703;48.978;8.982;2023-01-15T17:32:45;4.07;81.46
71047;SHT31;58703;48.978;8.982;2023-01-15T17:35:37;4.20;81.12
71047;SHT31;58703;48.978;8.982;2023-01-15T17:38:05;4.10;81.45
71047;SHT31;58703;48.978;8.982;2023-01-15T17:40:33;4.13;81.48
71047;SHT31;58703;48.978;8.982;2023-01-15T17:42:58;4.34;80.59
71047;SHT31;58703;48.978;8.982;2023-01-15T17:45:29;4.30;80.82
71047;SHT31;58703;48.978;8.982;2023-01-15T17:47:55;4.18;81.41
71047;SHT31;58703;48.978;8.982;2023-01-15T17:50:21;4.32;80.69
71047;SHT31;58703;48.978;8.982;2023-01-15T17:52:46;4.17;81.41
71047;SHT31;58703;48.978;8.982;2023-01-15T17:55:15;4.40;80.19
71047;SHT31;58703;48.978;8.982;2023-01-15T17:57:59;4.38;80.35
71047;SHT31;58703;48.978;8.982;2023-01-15T18:00:44;4.24;81.06